sensor_id;sensor_type;location;lat;lon;timestamp;P1;durP1;ratioP1;P2;durP2;ratioP2
3000;SDS011;1510;51.072;6.678;2023-01-19T00:01:40;360.57;;;347.37;;
3000;SDS011;1510;51.072;6.678;2023-01-19T00:04:06;364.30;;;350.70;;
3000;SDS011;1510;51.072;6.678;2023-01-19T00:06:33;382.13;;;368.30;;
3000;SDS011;1510;51.072;6.678;2023-01-19T00:09:00;389.90;;;375.87;;
3000;SDS011;1510;51.072;6.678;2023-01-19T00:11:27;417.80;;;401.87;;
3000;SDS011;1510;51.072;6.678;2023-01-19T00:13:53;407.97;;;392.80;;
3000;SDS011;1510;51.072;6.678;2023-01-19T00:16:20;416.77;;;401.63;;
3000;SDS011;1510;51.072;6.678;2023-01-19T00:18:49;405.17;;;390.27;;
3000;SDS011;1510;51.072;6.678;2023-01-19T00:21:17;428.00;;;412.00;;
3000;SDS011;1510;51.072;6.678;2023-01-19T00:23:45;445.70;;;428.97;;
3000;SDS011;1510;51.072;6.678;2023-01-19T00:26:15;465.80;;;447.93;;
3000;SDS011;1510;51.072;6.678;2023-01-19T00:28:42;496.20;;;476.90;;
3000;SDS011;1510;51.072;6.678;2023-01-19T00:31:12;495.47;;;475.33;;
3000;SDS011;1510;51.072;6.678;2023-01-19T00:33:38;505.98;;;485.52;;
3000;SDS011;1510;51.072;6.678;2023-01-19T00:36:07;537.37;;;514.60;;
3000;SDS011;1510;51.072;6.678;2023-01-19T00:38:35;548.47;;;524.83;;
3000;SDS011;1510;51.072;6.678;2023-01-19T00:41:03;543.80;;;520.60;;
3000;SDS011;1510;51.072;6.678;2023-01-19T00:43:30;537.10;;;513.60;;
3000;SDS011;1510;51.072;6.678;2023-01-19T00:45:56;547.27;;;523.53;;
3000;SDS011;1510;51.072;6.678;2023-01-19T00:48:23;558.20;;;532.30;;
3000;SDS011;1510;51.072;6.678;2023-01-19T00:50:50;531.47;;;508.67;;
3000;SDS011;1510;51.072;6.678;2023-01-19T00:53:18;530.87;;;507.80;;
3000;SDS011;1510;51.072;6.678;2023-01-19T00:55:45;524.47;;;501.47;;
3000;SDS011;1510;51.072;6.678;2023-01-19T00:58:12;526.13;;;502.97;;
3000;SDS011;1510;51.072;6.678;2023-01-19T01:00:39;532.90;;;508.43;;
3000;SDS011;1510;51.072;6.678;2023-01-19T01:03:06;523.97;;;500.43;;
3000;SDS011;1510;51.072;6.678;2023-01-19T01:05:32;519.93;;;495.93;;
3000;SDS011;1510;51.072;6.678;2023-01-19T01:07:59;522.17;;;499.27;;
3000;SDS011;1510;51.072;6.678;2023-01-19T01:10:28;529.23;;;505.87;;
3000;SDS011;1510;51.072;6.678;2023-01-19T01:12:55;549.37;;;524.77;;
3000;SDS011;1510;51.072;6.678;2023-01-19T01:15:21;549.60;;;525.20;;
3000;SDS011;1510;51.072;6.678;2023-01-19T01:17:50;558.37;;;533.00;;
3000;SDS011;1510;51.072;6.678;2023-01-19T01:20:17;553.37;;;527.77;;
3000;SDS011;1510;51.072;6.678;2023-01-19T01:22:47;575.30;;;548.30;;
3000;SDS011;1510;51.072;6.678;2023-01-19T01:25:16;581.67;;;554.13;;
3000;SDS011;1510;51.072;6.678;2023-01-19T01:27:47;555.70;;;530.10;;
3000;SDS011;1510;51.072;6.678;2023-01-19T01:30:15;559.83;;;534.47;;
3000;SDS011;1510;51.072;6.678;2023-01-19T01:32:42;567.17;;;540.27;;
3000;SDS011;1510;51.072;6.678;2023-01-19T01:35:11;566.70;;;539.83;;
3000;SDS011;1510;51.072;6.678;2023-01-19T01:37:39;567.40;;;539.50;;
3000;SDS011;1510;51.072;6.678;2023-01-19T01:40:07;555.97;;;528.63;;
3000;SDS011;1510;51.072;6.678;2023-01-19T01:42:36;528.70;;;504.20;;
3000;SDS011;1510;51.072;6.678;2023-01-19T01:45:11;523.00;;;499.08;;
3000;SDS011;1510;51.072;6.678;2023-01-19T01:47:50;525.73;;;501.07;;
3000;SDS011;1510;51.072;6.678;2023-01-19T01:50:20;502.00;;;479.50;;
3000;SDS011;1510;51.072;6.678;2023-01-19T01:52:51;496.50;;;474.83;;
3000;SDS011;1510;51.072;6.678;2023-01-19T01:55:21;473.23;;;452.80;;
3000;SDS011;1510;51.072;6.678;2023-01-19T01:57:50;472.33;;;451.77;;
3000;SDS011;1510;51.072;6.678;2023-01-19T02:00:23;463.80;;;445.13;;
3000;SDS011;1510;51.072;6.678;2023-01-19T02:02:50;450.77;;;432.00;;
3000;SDS011;1510;51.072;6.678;2023-01-19T02:05:17;460.97;;;439.73;;
3000;SDS011;1510;51.072;6.678;2023-01-19T02:07:48;450.00;;;431.50;;
3000;SDS011;1510;51.072;6.678;2023-01-19T02:10:36;437.57;;;420.03;;
3000;SDS011;1510;51.072;6.678;2023-01-19T02:13:21;426.73;;;409.80;;
3000;SDS011;1510;51.072;6.678;2023-01-19T02:15:51;417.37;;;401.30;;
3000;SDS011;1510;51.072;6.678;2023-01-19T02:18:20;411.53;;;395.20;;
3000;SDS011;1510;51.072;6.678;2023-01-19T02:21:00;411.83;;;395.13;;
3000;SDS011;1510;51.072;6.678;2023-01-19T02:23:39;416.70;;;400.77;;
3000;SDS011;1510;51.072;6.678;2023-01-19T02:26:09;418.40;;;401.50;;
3000;SDS011;1510;51.072;6.678;2023-01-19T02:28:39;431.63;;;414.17;;
3000;SDS011;1510;51.072;6.678;2023-01-19T02:31:43;406.90;;;391.10;;
3000;SDS011;1510;51.072;6.678;2023-01-19T02:34:13;394.80;;;379.60;;
3000;SDS011;1510;51.072;6.678;2023-01-19T02:36:43;392.30;;;377.47;;
3000;SDS011;1510;51.072;6.678;2023-01-19T02:39:16;392.70;;;377.70;;
3000;SDS011;1510;51.072;6.678;2023-01-19T02:41:46;371.60;;;357.20;;
3000;SDS011;1510;51.072;6.678;2023-01-19T02:44:16;391.23;;;376.73;;
3000;SDS011;1510;51.072;6.678;2023-01-19T02:46:45;397.77;;;381.87;;
3000;SDS011;1510;51.072;6.678;2023-01-19T02:49:12;389.00;;;374.20;;
3000;SDS011;1510;51.072;6.678;2023-01-19T02:51:38;382.83;;;368.33;;
3000;SDS011;1510;51.072;6.678;2023-01-19T02:54:25;379.23;;;365.10;;
3000;SDS011;1510;51.072;6.678;2023-01-19T02:57:00;379.47;;;365.17;;
3000;SDS011;1510;51.072;6.678;2023-01-19T02:59:44;389.90;;;374.87;;
3000;SDS011;1510;51.072;6.678;2023-01-19T03:02:22;395.50;;;380.07;;
3000;SDS011;1510;51.072;6.678;2023-01-19T03:05:02;381.83;;;367.23;;
3000;SDS011;1510;51.072;6.678;2023-01-19T03:07:43;340.30;;;327.80;;
3000;SDS011;1510;51.072;6.678;2023-01-19T03:10:19;323.03;;;310.60;;
3000;SDS011;1510;51.072;6.678;2023-01-19T03:12:55;302.13;;;290.70;;
3000;SDS011;1510;51.072;6.678;2023-01-19T03:15:29;301.90;;;291.00;;
3000;SDS011;1510;51.072;6.678;2023-01-19T03:17:59;306.07;;;294.40;;
3000;SDS011;1510;51.072;6.678;2023-01-19T03:20:28;280.03;;;269.93;;
3000;SDS011;1510;51.072;6.678;2023-01-19T03:22:59;274.73;;;264.53;;
3000;SDS011;1510;51.072;6.678;2023-01-19T03:25:30;246.17;;;237.47;;
3000;SDS011;1510;51.072;6.678;2023-01-19T03:28:02;215.43;;;207.93;;
3000;SDS011;1510;51.072;6.678;2023-01-19T03:30:30;195.60;;;188.50;;
3000;SDS011;1510;51.072;6.678;2023-01-19T03:33:00;187.83;;;180.97;;
3000;SDS011;1510;51.072;6.678;2023-01-19T03:35:32;182.47;;;175.20;;
3000;SDS011;1510;51.072;6.678;2023-01-19T03:38:02;165.90;;;159.00;;
3000;SDS011;1510;51.072;6.678;2023-01-19T03:40:34;150.47;;;144.57;;
3000;SDS011;1510;51.072;6.678;2023-01-19T03:43:02;143.10;;;137.03;;
3000;SDS011;1510;51.072;6.678;2023-01-19T03:45:30;95.17;;;91.27;;
3000;SDS011;1510;51.072;6.678;2023-01-19T03:47:59;95.43;;;91.43;;
3000;SDS011;1510;51.072;6.678;2023-01-19T03:50:28;68.03;;;64.60;;
3000;SDS011;1510;51.072;6.678;2023-01-19T03:53:01;64.37;;;61.00;;
3000;SDS011;1510;51.072;6.678;2023-01-19T03:55:35;53.17;;;49.90;;
3000;SDS011;1510;51.072;6.678;2023-01-19T03:58:03;50.33;;;47.63;;
3000;SDS011;1510;51.072;6.678;2023-01-19T04:00:30;46.10;;;42.93;;
3000;SDS011;1510;51.072;6.678;2023-01-19T04:02:56;46.83;;;44.20;;
3000;SDS011;1510;51.072;6.678;2023-01-19T04:05:24;50.70;;;47.30;;
3000;SDS011;1510;51.072;6.678;2023-01-19T04:07:51;47.30;;;44.70;;
3000;SDS011;1510;51.072;6.678;2023-01-19T04:10:20;47.97;;;45.30;;
3000;SDS011;1510;51.072;6.678;2023-01-19T04:12:53;40.57;;;38.10;;
3000;SDS011;1510;51.072;6.678;2023-01-19T04:15:23;43.00;;;40.70;;
3000;SDS011;1510;51.072;6.678;2023-01-19T04:17:50;40.80;;;37.83;;
3000;SDS011;1510;51.072;6.678;2023-01-19T04:20:18;42.10;;;39.90;;
3000;SDS011;1510;51.072;6.678;2023-01-19T04:22:45;50.00;;;47.40;;
3000;SDS011;1510;51.072;6.678;2023-01-19T04:25:13;70.07;;;66.00;;
3000;SDS011;1510;51.072;6.678;2023-01-19T04:27:43;88.87;;;85.13;;
3000;SDS011;1510;51.072;6.678;2023-01-19T04:30:12;108.77;;;103.97;;
3000;SDS011;1510;51.072;6.678;2023-01-19T04:32:39;119.70;;;114.40;;
3000;SDS011;1510;51.072;6.678;2023-01-19T04:35:06;133.47;;;127.77;;
3000;SDS011;1510;51.072;6.678;2023-01-19T04:37:33;131.63;;;126.43;;
3000;SDS011;1510;51.072;6.678;2023-01-19T04:40:00;127.60;;;122.13;;
3000;SDS011;1510;51.072;6.678;2023-01-19T04:42:26;118.60;;;113.43;;
3000;SDS011;1510;51.072;6.678;2023-01-19T04:44:53;107.23;;;103.00;;
3000;SDS011;1510;51.072;6.678;2023-01-19T04:47:21;106.20;;;101.80;;
3000;SDS011;1510;51.072;6.678;2023-01-19T04:49:48;109.47;;;104.57;;
3000;SDS011;1510;51.072;6.678;2023-01-19T04:52:15;109.07;;;104.53;;
3000;SDS011;1510;51.072;6.678;2023-01-19T04:54:42;103.93;;;97.97;;
3000;SDS011;1510;51.072;6.678;2023-01-19T04:57:09;108.53;;;103.90;;
3000;SDS011;1510;51.072;6.678;2023-01-19T04:59:35;121.53;;;116.37;;
3000;SDS011;1510;51.072;6.678;2023-01-19T05:02:02;130.23;;;124.70;;
3000;SDS011;1510;51.072;6.678;2023-01-19T05:04:30;151.70;;;145.40;;
3000;SDS011;1510;51.072;6.678;2023-01-19T05:06:57;203.43;;;196.20;;
3000;SDS011;1510;51.072;6.678;2023-01-19T05:09:24;279.33;;;269.43;;
3000;SDS011;1510;51.072;6.678;2023-01-19T05:11:51;352.50;;;340.10;;
3000;SDS011;1510;51.072;6.678;2023-01-19T05:14:18;439.60;;;423.20;;
3000;SDS011;1510;51.072;6.678;2023-01-19T05:16:45;530.43;;;507.93;;
3000;SDS011;1510;51.072;6.678;2023-01-19T05:19:12;578.50;;;553.53;;
3000;SDS011;1510;51.072;6.678;2023-01-19T05:21:40;638.37;;;607.27;;
3000;SDS011;1510;51.072;6.678;2023-01-19T05:24:07;645.10;;;613.33;;
3000;SDS011;1510;51.072;6.678;2023-01-19T05:26:34;631.47;;;601.47;;
3000;SDS011;1510;51.072;6.678;2023-01-19T05:29:01;667.37;;;632.07;;
3000;SDS011;1510;51.072;6.678;2023-01-19T05:31:28;652.97;;;617.78;;
3000;SDS011;1510;51.072;6.678;2023-01-19T05:33:55;658.10;;;622.20;;
3000;SDS011;1510;51.072;6.678;2023-01-19T05:36:21;659.73;;;621.57;;
3000;SDS011;1510;51.072;6.678;2023-01-19T05:38:50;665.47;;;625.40;;
3000;SDS011;1510;51.072;6.678;2023-01-19T05:41:16;684.17;;;639.70;;
3000;SDS011;1510;51.072;6.678;2023-01-19T05:43:43;681.27;;;637.80;;
3000;SDS011;1510;51.072;6.678;2023-01-19T05:46:10;687.83;;;641.97;;
3000;SDS011;1510;51.072;6.678;2023-01-19T05:48:36;696.53;;;648.83;;
3000;SDS011;1510;51.072;6.678;2023-01-19T05:51:04;693.30;;;645.10;;
3000;SDS011;1510;51.072;6.678;2023-01-19T05:53:31;686.17;;;639.17;;
3000;SDS011;1510;51.072;6.678;2023-01-19T05:56:00;698.53;;;649.47;;
3000;SDS011;1510;51.072;6.678;2023-01-19T05:58:27;712.93;;;660.73;;
3000;SDS011;1510;51.072;6.678;2023-01-19T06:01:00;703.63;;;651.20;;
3000;SDS011;1510;51.072;6.678;2023-01-19T06:03:29;696.53;;;642.73;;
3000;SDS011;1510;51.072;6.678;2023-01-19T06:05:59;683.87;;;633.90;;
3000;SDS011;1510;51.072;6.678;2023-01-19T06:08:26;700.70;;;646.57;;
3000;SDS011;1510;51.072;6.678;2023-01-19T06:10:53;713.67;;;658.27;;
3000;SDS011;1510;51.072;6.678;2023-01-19T06:13:21;706.93;;;653.47;;
3000;SDS011;1510;51.072;6.678;2023-01-19T06:15:49;714.03;;;656.50;;
3000;SDS011;1510;51.072;6.678;2023-01-19T06:18:21;713.63;;;656.95;;
3000;SDS011;1510;51.072;6.678;2023-01-19T06:20:48;711.80;;;657.93;;
3000;SDS011;1510;51.072;6.678;2023-01-19T06:23:16;713.20;;;656.83;;
3000;SDS011;1510;51.072;6.678;2023-01-19T06:25:43;737.07;;;678.77;;
3000;SDS011;1510;51.072;6.678;2023-01-19T06:28:09;734.00;;;675.57;;
3000;SDS011;1510;51.072;6.678;2023-01-19T06:30:42;723.37;;;667.90;;
3000;SDS011;1510;51.072;6.678;2023-01-19T06:33:18;735.87;;;678.47;;
3000;SDS011;1510;51.072;6.678;2023-01-19T06:35:45;714.53;;;657.53;;
3000;SDS011;1510;51.072;6.678;2023-01-19T06:38:14;721.03;;;663.73;;
3000;SDS011;1510;51.072;6.678;2023-01-19T06:40:42;737.93;;;678.63;;
3000;SDS011;1510;51.072;6.678;2023-01-19T06:43:09;739.70;;;681.37;;
3000;SDS011;1510;51.072;6.678;2023-01-19T06:45:38;731.23;;;672.57;;
3000;SDS011;1510;51.072;6.678;2023-01-19T06:48:17;740.87;;;678.03;;
3000;SDS011;1510;51.072;6.678;2023-01-19T06:50:44;739.70;;;677.10;;
3000;SDS011;1510;51.072;6.678;2023-01-19T06:53:12;725.50;;;666.17;;
3000;SDS011;1510;51.072;6.678;2023-01-19T06:55:40;733.93;;;671.27;;
3000;SDS011;1510;51.072;6.678;2023-01-19T06:58:07;722.58;;;662.47;;
3000;SDS011;1510;51.072;6.678;2023-01-19T07:00:37;738.47;;;677.97;;
3000;SDS011;1510;51.072;6.678;2023-01-19T07:03:04;733.13;;;672.43;;
3000;SDS011;1510;51.072;6.678;2023-01-19T07:05:34;734.57;;;672.27;;
3000;SDS011;1510;51.072;6.678;2023-01-19T07:08:01;759.87;;;697.53;;
3000;SDS011;1510;51.072;6.678;2023-01-19T07:10:28;762.37;;;702.13;;
3000;SDS011;1510;51.072;6.678;2023-01-19T07:12:55;751.20;;;689.73;;
3000;SDS011;1510;51.072;6.678;2023-01-19T07:15:22;748.50;;;686.63;;
3000;SDS011;1510;51.072;6.678;2023-01-19T07:17:49;731.17;;;673.17;;
3000;SDS011;1510;51.072;6.678;2023-01-19T07:20:16;732.43;;;672.70;;
3000;SDS011;1510;51.072;6.678;2023-01-19T07:22:45;741.30;;;680.90;;
3000;SDS011;1510;51.072;6.678;2023-01-19T07:25:13;739.80;;;678.50;;
3000;SDS011;1510;51.072;6.678;2023-01-19T07:27:40;751.53;;;689.77;;
3000;SDS011;1510;51.072;6.678;2023-01-19T07:30:08;760.50;;;698.63;;
3000;SDS011;1510;51.072;6.678;2023-01-19T07:32:35;760.93;;;698.57;;
3000;SDS011;1510;51.072;6.678;2023-01-19T07:35:02;735.90;;;674.40;;
3000;SDS011;1510;51.072;6.678;2023-01-19T07:37:29;736.17;;;676.27;;
3000;SDS011;1510;51.072;6.678;2023-01-19T07:39:58;759.13;;;698.73;;
3000;SDS011;1510;51.072;6.678;2023-01-19T07:42:24;753.87;;;692.10;;
3000;SDS011;1510;51.072;6.678;2023-01-19T07:44:51;754.70;;;690.90;;
3000;SDS011;1510;51.072;6.678;2023-01-19T07:47:18;748.13;;;686.60;;
3000;SDS011;1510;51.072;6.678;2023-01-19T07:49:45;762.87;;;699.67;;
3000;SDS011;1510;51.072;6.678;2023-01-19T07:52:12;749.97;;;687.67;;
3000;SDS011;1510;51.072;6.678;2023-01-19T07:54:39;739.43;;;677.43;;
3000;SDS011;1510;51.072;6.678;2023-01-19T07:57:08;745.67;;;683.57;;
3000;SDS011;1510;51.072;6.678;2023-01-19T07:59:34;749.57;;;686.87;;
3000;SDS011;1510;51.072;6.678;2023-01-19T08:02:02;739.50;;;677.10;;
3000;SDS011;1510;51.072;6.678;2023-01-19T08:04:29;724.03;;;662.47;;
3000;SDS011;1510;51.072;6.678;2023-01-19T08:06:56;724.80;;;664.80;;
3000;SDS011;1510;51.072;6.678;2023-01-19T08:09:23;727.10;;;665.00;;
3000;SDS011;1510;51.072;6.678;2023-01-19T08:11:51;711.50;;;652.70;;
3000;SDS011;1510;51.072;6.678;2023-01-19T08:14:20;717.00;;;656.80;;
3000;SDS011;1510;51.072;6.678;2023-01-19T08:16:46;714.97;;;654.70;;
3000;SDS011;1510;51.072;6.678;2023-01-19T08:19:13;719.60;;;658.67;;
3000;SDS011;1510;51.072;6.678;2023-01-19T08:21:40;718.47;;;658.87;;
3000;SDS011;1510;51.072;6.678;2023-01-19T08:24:09;709.07;;;650.87;;
3000;SDS011;1510;51.072;6.678;2023-01-19T08:26:43;712.97;;;655.67;;
3000;SDS011;1510;51.072;6.678;2023-01-19T08:29:10;714.73;;;656.50;;
3000;SDS011;1510;51.072;6.678;2023-01-19T08:31:38;716.13;;;659.03;;
3000;SDS011;1510;51.072;6.678;2023-01-19T08:34:08;711.67;;;655.60;;
3000;SDS011;1510;51.072;6.678;2023-01-19T08:36:34;723.47;;;665.73;;
3000;SDS011;1510;51.072;6.678;2023-01-19T08:39:01;713.57;;;656.67;;
3000;SDS011;1510;51.072;6.678;2023-01-19T08:41:29;720.63;;;662.43;;
3000;SDS011;1510;51.072;6.678;2023-01-19T08:43:56;721.40;;;663.83;;
3000;SDS011;1510;51.072;6.678;2023-01-19T08:46:23;717.97;;;660.47;;
3000;SDS011;1510;51.072;6.678;2023-01-19T08:48:51;711.40;;;655.60;;
3000;SDS011;1510;51.072;6.678;2023-01-19T08:51:19;720.07;;;664.70;;
3000;SDS011;1510;51.072;6.678;2023-01-19T08:53:47;718.70;;;662.40;;
3000;SDS011;1510;51.072;6.678;2023-01-19T08:56:14;718.73;;;662.60;;
3000;SDS011;1510;51.072;6.678;2023-01-19T08:58:42;718.10;;;661.83;;
3000;SDS011;1510;51.072;6.678;2023-01-19T09:01:11;711.07;;;654.77;;
3000;SDS011;1510;51.072;6.678;2023-01-19T09:03:40;717.00;;;661.27;;
3000;SDS011;1510;51.072;6.678;2023-01-19T09:06:10;717.20;;;661.10;;
3000;SDS011;1510;51.072;6.678;2023-01-19T09:08:41;723.03;;;666.40;;
3000;SDS011;1510;51.072;6.678;2023-01-19T09:11:12;730.20;;;674.83;;
3000;SDS011;1510;51.072;6.678;2023-01-19T09:13:42;716.40;;;662.90;;
3000;SDS011;1510;51.072;6.678;2023-01-19T09:16:10;733.73;;;678.93;;
3000;SDS011;1510;51.072;6.678;2023-01-19T09:18:39;730.23;;;674.67;;
3000;SDS011;1510;51.072;6.678;2023-01-19T09:21:06;725.67;;;672.63;;
3000;SDS011;1510;51.072;6.678;2023-01-19T09:23:35;723.43;;;669.83;;
3000;SDS011;1510;51.072;6.678;2023-01-19T09:26:03;717.10;;;664.60;;
3000;SDS011;1510;51.072;6.678;2023-01-19T09:28:30;711.77;;;661.67;;
3000;SDS011;1510;51.072;6.678;2023-01-19T09:30:58;713.93;;;664.13;;
3000;SDS011;1510;51.072;6.678;2023-01-19T09:33:24;718.47;;;667.70;;
3000;SDS011;1510;51.072;6.678;2023-01-19T09:35:51;720.60;;;669.30;;
3000;SDS011;1510;51.072;6.678;2023-01-19T09:38:26;721.37;;;667.77;;
3000;SDS011;1510;51.072;6.678;2023-01-19T09:40:57;716.07;;;665.27;;
3000;SDS011;1510;51.072;6.678;2023-01-19T09:43:32;713.78;;;660.97;;
3000;SDS011;1510;51.072;6.678;2023-01-19T09:46:04;731.13;;;673.65;;
3000;SDS011;1510;51.072;6.678;2023-01-19T09:48:41;726.43;;;672.67;;
3000;SDS011;1510;51.072;6.678;2023-01-19T09:51:12;723.40;;;669.33;;
3000;SDS011;1510;51.072;6.678;2023-01-19T09:53:54;719.15;;;665.72;;
3000;SDS011;1510;51.072;6.678;2023-01-19T09:56:28;738.20;;;680.30;;
3000;SDS011;1510;51.072;6.678;2023-01-19T09:58:56;713.90;;;659.17;;
3000;SDS011;1510;51.072;6.678;2023-01-19T10:01:32;712.50;;;657.97;;
3000;SDS011;1510;51.072;6.678;2023-01-19T10:04:10;706.10;;;653.57;;
3000;SDS011;1510;51.072;6.678;2023-01-19T10:06:54;707.73;;;655.97;;
3000;SDS011;1510;51.072;6.678;2023-01-19T10:09:32;704.13;;;653.43;;
3000;SDS011;1510;51.072;6.678;2023-01-19T10:12:09;709.97;;;658.70;;
3000;SDS011;1510;51.072;6.678;2023-01-19T10:14:44;702.03;;;654.03;;
3000;SDS011;1510;51.072;6.678;2023-01-19T10:17:19;691.97;;;640.65;;
3000;SDS011;1510;51.072;6.678;2023-01-19T10:20:01;699.60;;;649.97;;
3000;SDS011;1510;51.072;6.678;2023-01-19T10:22:35;697.17;;;649.63;;
3000;SDS011;1510;51.072;6.678;2023-01-19T10:25:03;691.20;;;643.27;;
3000;SDS011;1510;51.072;6.678;2023-01-19T10:27:41;677.65;;;631.00;;
3000;SDS011;1510;51.072;6.678;2023-01-19T10:30:12;688.03;;;642.07;;
3000;SDS011;1510;51.072;6.678;2023-01-19T10:32:46;682.30;;;638.13;;
3000;SDS011;1510;51.072;6.678;2023-01-19T10:35:17;679.87;;;637.97;;
3000;SDS011;1510;51.072;6.678;2023-01-19T10:37:48;682.07;;;638.00;;
3000;SDS011;1510;51.072;6.678;2023-01-19T10:40:18;678.93;;;636.20;;
3000;SDS011;1510;51.072;6.678;2023-01-19T10:42:53;675.27;;;634.60;;
3000;SDS011;1510;51.072;6.678;2023-01-19T10:45:26;678.73;;;636.70;;
3000;SDS011;1510;51.072;6.678;2023-01-19T10:48:03;663.07;;;623.63;;
3000;SDS011;1510;51.072;6.678;2023-01-19T10:50:39;652.07;;;613.50;;
3000;SDS011;1510;51.072;6.678;2023-01-19T10:53:16;654.00;;;615.80;;
3000;SDS011;1510;51.072;6.678;2023-01-19T10:56:07;653.67;;;616.80;;
3000;SDS011;1510;51.072;6.678;2023-01-19T10:58:51;645.67;;;609.77;;
3000;SDS011;1510;51.072;6.678;2023-01-19T11:01:22;643.97;;;606.83;;
3000;SDS011;1510;51.072;6.678;2023-01-19T11:03:54;626.00;;;591.53;;
3000;SDS011;1510;51.072;6.678;2023-01-19T11:06:30;618.13;;;585.47;;
3000;SDS011;1510;51.072;6.678;2023-01-19T11:09:19;614.47;;;583.43;;
3000;SDS011;1510;51.072;6.678;2023-01-19T11:11:48;624.10;;;590.70;;
3000;SDS011;1510;51.072;6.678;2023-01-19T11:14:20;592.23;;;563.27;;
3000;SDS011;1510;51.072;6.678;2023-01-19T11:17:01;608.90;;;579.10;;
3000;SDS011;1510;51.072;6.678;2023-01-19T11:19:31;601.50;;;571.60;;
3000;SDS011;1510;51.072;6.678;2023-01-19T11:22:09;602.23;;;571.20;;
3000;SDS011;1510;51.072;6.678;2023-01-19T11:24:46;585.03;;;554.73;;
3000;SDS011;1510;51.072;6.678;2023-01-19T11:27:19;556.77;;;529.93;;
3000;SDS011;1510;51.072;6.678;2023-01-19T11:29:52;548.37;;;520.97;;
3000;SDS011;1510;51.072;6.678;2023-01-19T11:32:29;473.00;;;452.03;;
3000;SDS011;1510;51.072;6.678;2023-01-19T11:35:01;462.80;;;442.80;;
3000;SDS011;1510;51.072;6.678;2023-01-19T11:37:49;551.83;;;526.50;;
3000;SDS011;1510;51.072;6.678;2023-01-19T11:40:31;544.13;;;519.80;;
3000;SDS011;1510;51.072;6.678;2023-01-19T11:43:03;517.03;;;493.87;;
3000;SDS011;1510;51.072;6.678;2023-01-19T11:45:38;531.87;;;507.57;;
3000;SDS011;1510;51.072;6.678;2023-01-19T11:48:06;491.37;;;470.47;;
3000;SDS011;1510;51.072;6.678;2023-01-19T11:50:41;480.70;;;459.27;;
3000;SDS011;1510;51.072;6.678;2023-01-19T11:53:13;495.30;;;473.37;;
3000;SDS011;1510;51.072;6.678;2023-01-19T11:55:46;509.10;;;486.80;;
3000;SDS011;1510;51.072;6.678;2023-01-19T11:58:49;506.87;;;483.80;;
3000;SDS011;1510;51.072;6.678;2023-01-19T12:01:18;474.87;;;454.27;;
3000;SDS011;1510;51.072;6.678;2023-01-19T12:03:51;430.67;;;412.00;;
3000;SDS011;1510;51.072;6.678;2023-01-19T12:06:23;473.80;;;454.00;;
3000;SDS011;1510;51.072;6.678;2023-01-19T12:08:53;467.97;;;448.07;;
3000;SDS011;1510;51.072;6.678;2023-01-19T12:11:26;404.67;;;387.60;;
3000;SDS011;1510;51.072;6.678;2023-01-19T12:13:57;355.87;;;341.47;;
3000;SDS011;1510;51.072;6.678;2023-01-19T12:16:27;183.73;;;174.43;;
3000;SDS011;1510;51.072;6.678;2023-01-19T12:18:56;183.50;;;175.03;;
3000;SDS011;1510;51.072;6.678;2023-01-19T12:21:26;112.23;;;106.10;;
3000;SDS011;1510;51.072;6.678;2023-01-19T12:23:55;70.37;;;65.50;;
3000;SDS011;1510;51.072;6.678;2023-01-19T12:26:31;41.83;;;37.70;;
3000;SDS011;1510;51.072;6.678;2023-01-19T12:29:04;73.83;;;68.23;;
3000;SDS011;1510;51.072;6.678;2023-01-19T12:31:37;50.37;;;28.63;;
3000;SDS011;1510;51.072;6.678;2023-01-19T12:34:37;35.30;;;29.23;;
3000;SDS011;1510;51.072;6.678;2023-01-19T12:37:06;44.33;;;33.83;;
3000;SDS011;1510;51.072;6.678;2023-01-19T12:39:54;41.07;;;36.40;;
3000;SDS011;1510;51.072;6.678;2023-01-19T12:42:24;37.13;;;33.40;;
3000;SDS011;1510;51.072;6.678;2023-01-19T12:45:03;42.20;;;32.83;;
3000;SDS011;1510;51.072;6.678;2023-01-19T12:47:33;44.13;;;39.63;;
3000;SDS011;1510;51.072;6.678;2023-01-19T12:50:03;43.67;;;39.83;;
3000;SDS011;1510;51.072;6.678;2023-01-19T12:52:36;57.73;;;46.43;;
3000;SDS011;1510;51.072;6.678;2023-01-19T12:55:17;61.73;;;57.00;;
3000;SDS011;1510;51.072;6.678;2023-01-19T12:57:49;62.73;;;58.13;;
3000;SDS011;1510;51.072;6.678;2023-01-19T13:00:31;71.50;;;66.40;;
3000;SDS011;1510;51.072;6.678;2023-01-19T13:03:04;84.97;;;79.60;;
3000;SDS011;1510;51.072;6.678;2023-01-19T13:06:09;88.37;;;83.07;;
3000;SDS011;1510;51.072;6.678;2023-01-19T13:08:54;83.87;;;77.83;;
3000;SDS011;1510;51.072;6.678;2023-01-19T13:11:22;79.30;;;74.40;;
3000;SDS011;1510;51.072;6.678;2023-01-19T13:17:30;112.30;;;105.83;;
3000;SDS011;1510;51.072;6.678;2023-01-19T13:20:35;128.97;;;123.10;;
3000;SDS011;1510;51.072;6.678;2023-01-19T13:23:49;150.47;;;143.80;;
3000;SDS011;1510;51.072;6.678;2023-01-19T13:29:58;209.00;;;200.53;;
3000;SDS011;1510;51.072;6.678;2023-01-19T13:32:28;227.30;;;217.97;;
3000;SDS011;1510;51.072;6.678;2023-01-19T13:34:59;223.73;;;214.20;;
3000;SDS011;1510;51.072;6.678;2023-01-19T13:37:29;230.20;;;220.77;;
3000;SDS011;1510;51.072;6.678;2023-01-19T13:40:00;224.07;;;215.03;;
3000;SDS011;1510;51.072;6.678;2023-01-19T13:42:28;186.00;;;177.67;;
3000;SDS011;1510;51.072;6.678;2023-01-19T13:45:01;156.53;;;148.97;;
3000;SDS011;1510;51.072;6.678;2023-01-19T13:47:38;140.23;;;133.13;;
3000;SDS011;1510;51.072;6.678;2023-01-19T13:50:14;130.60;;;124.87;;
3000;SDS011;1510;51.072;6.678;2023-01-19T13:52:45;156.67;;;149.90;;
3000;SDS011;1510;51.072;6.678;2023-01-19T13:55:13;162.20;;;155.30;;
3000;SDS011;1510;51.072;6.678;2023-01-19T13:57:41;157.83;;;150.70;;
3000;SDS011;1510;51.072;6.678;2023-01-19T14:00:17;164.57;;;157.13;;
3000;SDS011;1510;51.072;6.678;2023-01-19T14:02:54;173.53;;;166.00;;
3000;SDS011;1510;51.072;6.678;2023-01-19T14:05:42;197.03;;;188.63;;
3000;SDS011;1510;51.072;6.678;2023-01-19T14:08:11;187.07;;;179.47;;
3000;SDS011;1510;51.072;6.678;2023-01-19T14:10:40;186.10;;;178.50;;
3000;SDS011;1510;51.072;6.678;2023-01-19T14:13:13;197.03;;;187.77;;
3000;SDS011;1510;51.072;6.678;2023-01-19T14:15:47;216.03;;;207.40;;
3000;SDS011;1510;51.072;6.678;2023-01-19T14:18:53;229.57;;;220.43;;
3000;SDS011;1510;51.072;6.678;2023-01-19T14:21:24;241.07;;;231.20;;
3000;SDS011;1510;51.072;6.678;2023-01-19T14:24:05;240.60;;;231.17;;
3000;SDS011;1510;51.072;6.678;2023-01-19T14:26:43;257.47;;;247.10;;
3000;SDS011;1510;51.072;6.678;2023-01-19T14:29:20;278.20;;;267.33;;
3000;SDS011;1510;51.072;6.678;2023-01-19T14:31:51;294.37;;;283.17;;
3000;SDS011;1510;51.072;6.678;2023-01-19T14:34:35;338.87;;;325.67;;
3000;SDS011;1510;51.072;6.678;2023-01-19T14:37:13;419.50;;;403.00;;
3000;SDS011;1510;51.072;6.678;2023-01-19T14:39:50;480.23;;;460.60;;
3000;SDS011;1510;51.072;6.678;2023-01-19T14:42:26;534.37;;;510.87;;
3000;SDS011;1510;51.072;6.678;2023-01-19T14:44:56;578.40;;;550.97;;
3000;SDS011;1510;51.072;6.678;2023-01-19T14:47:29;603.97;;;573.73;;
3000;SDS011;1510;51.072;6.678;2023-01-19T14:50:00;598.90;;;569.13;;
3000;SDS011;1510;51.072;6.678;2023-01-19T14:52:33;633.70;;;599.53;;
3000;SDS011;1510;51.072;6.678;2023-01-19T14:55:03;649.60;;;612.63;;